sensor_id;sensor_type;location;lat;lon;timestamp;temperature;humidity
7349;DHT22;13010;-33.424;-70.614;2023-02-28T00:00:01;20.90;99.90
7349;DHT22;13010;-33.424;-70.614;2023-02-28T00:02:56;20.80;99.90
7349;DHT22;13010;-33.424;-70.614;2023-02-28T00:05:45;20.50;99.90
7349;DHT22;13010;-33.424;-70.614;2023-02-28T00:08:34;20.40;99.90
7349;DHT22;13010;-33.424;-70.614;2023-02-28T00:11:23;20.30;99.90
7349;DHT22;13010;-33.424;-70.614;2023-02-28T00:14:13;20.10;99.90
7349;DHT22;13010;-33.424;-70.614;2023-02-28T00:17:02;19.80;99.90
7349;DHT22;13010;-33.424;-70.614;2023-02-28T00:19:51;19.70;99.90
7349;DHT22;13010;-33.424;-70.614;2023-02-28T00:22:42;19.60;99.90
7349;DHT22;13010;-33.424;-70.614;2023-02-28T00:25:31;19.80;99.90
7349;DHT22;13010;-33.424;-70.614;2023-02-28T00:28:20;19.80;99.90
7349;DHT22;13010;-33.424;-70.614;2023-02-28T00:31:11;19.50;99.90
7349;DHT22;13010;-33.424;-70.614;2023-02-28T00:34:00;19.40;99.90
7349;DHT22;13010;-33.424;-70.614;2023-02-28T00:36:49;19.20;99.90
7349;DHT22;13010;-33.424;-70.614;2023-02-28T00:39:38;19.00;99.90
7349;DHT22;13010;-33.424;-70.614;2023-02-28T00:42:27;19.00;99.90
7349;DHT22;13010;-33.424;-70.614;2023-02-28T00:45:16;19.00;99.90
7349;DHT22;13010;-33.424;-70.614;2023-02-28T00:48:09;19.00;99.90
7349;DHT22;13010;-33.424;-70.614;2023-02-28T00:50:58;19.00;99.90
7349;DHT22;13010;-33.424;-70.614;2023-02-28T00:53:46;18.80;99.90
7349;DHT22;13010;-33.424;-70.614;2023-02-28T00:56:35;18.60;99.90
7349;DHT22;13010;-33.424;-70.614;2023-02-28T00:59:24;18.50;99.90
7349;DHT22;13010;-33.424;-70.614;2023-02-28T01:02:13;18.50;99.90
7349;DHT22;13010;-33.424;-70.614;2023-02-28T01:05:04;18.60;99.90
7349;DHT22;13010;-33.424;-70.614;2023-02-28T01:07:54;18.80;99.90
7349;DHT22;13010;-33.424;-70.614;2023-02-28T01:10:43;18.80;99.90
7349;DHT22;13010;-33.424;-70.614;2023-02-28T01:13:32;18.50;99.90
7349;DHT22;13010;-33.424;-70.614;2023-02-28T01:16:21;18.50;99.90
7349;DHT22;13010;-33.424;-70.614;2023-02-28T01:19:10;18.60;99.90
7349;DHT22;13010;-33.424;-70.614;2023-02-28T01:22:04;18.50;99.90
7349;DHT22;13010;-33.424;-70.614;2023-02-28T01:24:53;18.70;99.90
7349;DHT22;13010;-33.424;-70.614;2023-02-28T01:27:41;18.40;99.90
7349;DHT22;13010;-33.424;-70.614;2023-02-28T01:30:30;18.20;99.90
7349;DHT22;13010;-33.424;-70.614;2023-02-28T01:33:19;18.10;99.90
7349;DHT22;13010;-33.424;-70.614;2023-02-28T01:36:10;18.10;99.90
7349;DHT22;13010;-33.424;-70.614;2023-02-28T01:39:03;18.10;99.90
7349;DHT22;13010;-33.424;-70.614;2023-02-28T01:41:52;18.10;99.90
7349;DHT22;13010;-33.424;-70.614;2023-02-28T01:45:04;18.00;99.90
7349;DHT22;13010;-33.424;-70.614;2023-02-28T01:47:57;17.90;99.90
7349;DHT22;13010;-33.424;-70.614;2023-02-28T01:50:47;17.80;99.90
7349;DHT22;13010;-33.424;-70.614;2023-02-28T01:53:45;17.80;99.90
7349;DHT22;13010;-33.424;-70.614;2023-02-28T01:56:40;17.70;99.90
7349;DHT22;13010;-33.424;-70.614;2023-02-28T01:59:34;17.60;99.90
7349;DHT22;13010;-33.424;-70.614;2023-02-28T02:02:25;17.30;99.90
7349;DHT22;13010;-33.424;-70.614;2023-02-28T02:05:17;17.30;99.90
7349;DHT22;13010;-33.424;-70.614;2023-02-28T02:08:08;17.40;99.90
7349;DHT22;13010;-33.424;-70.614;2023-02-28T02:10:59;17.20;99.90
7349;DHT22;13010;-33.424;-70.614;2023-02-28T02:17:24;17.10;99.90
7349;DHT22;13010;-33.424;-70.614;2023-02-28T02:23:51;17.30;99.90
7349;DHT22;13010;-33.424;-70.614;2023-02-28T02:26:56;17.30;99.90
7349;DHT22;13010;-33.424;-70.614;2023-02-28T02:33:23;17.00;99.90
7349;DHT22;13010;-33.424;-70.614;2023-02-28T02:36:20;16.90;99.90
7349;DHT22;13010;-33.424;-70.614;2023-02-28T02:39:16;16.90;99.90
7349;DHT22;13010;-33.424;-70.614;2023-02-28T02:42:12;16.90;99.90
7349;DHT22;13010;-33.424;-70.614;2023-02-28T02:45:04;16.80;99.90
7349;DHT22;13010;-33.424;-70.614;2023-02-28T02:47:58;16.70;99.90
7349;DHT22;13010;-33.424;-70.614;2023-02-28T02:50:52;16.60;99.90
7349;DHT22;13010;-33.424;-70.614;2023-02-28T02:53:47;16.40;99.90
7349;DHT22;13010;-33.424;-70.614;2023-02-28T02:56:40;16.30;99.90
7349;DHT22;13010;-33.424;-70.614;2023-02-28T02:59:31;16.30;99.90
7349;DHT22;13010;-33.424;-70.614;2023-02-28T03:02:22;16.20;99.90
7349;DHT22;13010;-33.424;-70.614;2023-02-28T03:05:17;16.30;99.90
7349;DHT22;13010;-33.424;-70.614;2023-02-28T03:08:07;16.30;99.90
7349;DHT22;13010;-33.424;-70.614;2023-02-28T03:11:01;16.40;99.90
7349;DHT22;13010;-33.424;-70.614;2023-02-28T03:17:22;16.40;99.90
7349;DHT22;13010;-33.424;-70.614;2023-02-28T03:20:17;16.40;99.90
7349;DHT22;13010;-33.424;-70.614;2023-02-28T03:23:19;16.20;99.90
7349;DHT22;13010;-33.424;-70.614;2023-02-28T03:26:17;16.10;99.90
7349;DHT22;13010;-33.424;-70.614;2023-02-28T03:29:13;16.00;99.90
7349;DHT22;13010;-33.424;-70.614;2023-02-28T03:32:08;15.90;99.90
7349;DHT22;13010;-33.424;-70.614;2023-02-28T03:35:07;15.80;99.90
7349;DHT22;13010;-33.424;-70.614;2023-02-28T03:38:03;15.70;99.90
7349;DHT22;13010;-33.424;-70.614;2023-02-28T03:41:00;15.50;99.90
7349;DHT22;13010;-33.424;-70.614;2023-02-28T03:43:56;15.40;99.90
7349;DHT22;13010;-33.424;-70.614;2023-02-28T03:46:48;15.30;99.90
7349;DHT22;13010;-33.424;-70.614;2023-02-28T03:49:42;15.30;99.90
7349;DHT22;13010;-33.424;-70.614;2023-02-28T03:52:37;15.20;99.90
7349;DHT22;13010;-33.424;-70.614;2023-02-28T03:55:28;15.20;99.90
7349;DHT22;13010;-33.424;-70.614;2023-02-28T03:58:24;15.20;99.90
7349;DHT22;13010;-33.424;-70.614;2023-02-28T04:01:20;15.10;99.90
7349;DHT22;13010;-33.424;-70.614;2023-02-28T04:04:11;15.00;99.90
7349;DHT22;13010;-33.424;-70.614;2023-02-28T04:07:07;14.90;99.90
7349;DHT22;13010;-33.424;-70.614;2023-02-28T04:09:59;14.80;99.90
7349;DHT22;13010;-33.424;-70.614;2023-02-28T04:12:49;14.80;99.90
7349;DHT22;13010;-33.424;-70.614;2023-02-28T04:15:37;14.70;99.90
7349;DHT22;13010;-33.424;-70.614;2023-02-28T04:18:28;14.60;99.90
7349;DHT22;13010;-33.424;-70.614;2023-02-28T04:21:31;14.70;99.90
7349;DHT22;13010;-33.424;-70.614;2023-02-28T04:24:21;14.70;99.90
7349;DHT22;13010;-33.424;-70.614;2023-02-28T04:27:10;14.50;99.90
7349;DHT22;13010;-33.424;-70.614;2023-02-28T04:29:59;14.40;99.90
7349;DHT22;13010;-33.424;-70.614;2023-02-28T04:32:48;14.20;99.90
7349;DHT22;13010;-33.424;-70.614;2023-02-28T04:35:39;14.00;99.90
7349;DHT22;13010;-33.424;-70.614;2023-02-28T04:38:29;13.90;99.90
7349;DHT22;13010;-33.424;-70.614;2023-02-28T04:41:18;14.10;99.90
7349;DHT22;13010;-33.424;-70.614;2023-02-28T04:44:07;14.30;99.90
7349;DHT22;13010;-33.424;-70.614;2023-02-28T04:46:56;14.50;99.90
7349;DHT22;13010;-33.424;-70.614;2023-02-28T04:49:44;14.40;99.90
7349;DHT22;13010;-33.424;-70.614;2023-02-28T04:52:36;14.30;99.90
7349;DHT22;13010;-33.424;-70.614;2023-02-28T04:55:25;14.30;99.90
7349;DHT22;13010;-33.424;-70.614;2023-02-28T04:58:13;14.20;99.90
7349;DHT22;13010;-33.424;-70.614;2023-02-28T05:01:03;14.30;99.90
7349;DHT22;13010;-33.424;-70.614;2023-02-28T05:03:59;14.30;99.90
7349;DHT22;13010;-33.424;-70.614;2023-02-28T05:06:49;14.10;99.90
7349;DHT22;13010;-33.424;-70.614;2023-02-28T05:09:43;13.90;99.90
7349;DHT22;13010;-33.424;-70.614;2023-02-28T05:12:31;13.60;99.90
7349;DHT22;13010;-33.424;-70.614;2023-02-28T05:15:20;13.40;99.90
7349;DHT22;13010;-33.424;-70.614;2023-02-28T05:18:10;13.60;99.90
7349;DHT22;13010;-33.424;-70.614;2023-02-28T05:20:59;13.60;99.90
7349;DHT22;13010;-33.424;-70.614;2023-02-28T05:23:49;13.60;99.90
7349;DHT22;13010;-33.424;-70.614;2023-02-28T05:26:41;13.80;99.90
7349;DHT22;13010;-33.424;-70.614;2023-02-28T05:29:30;13.90;99.90
7349;DHT22;13010;-33.424;-70.614;2023-02-28T05:32:19;14.10;99.90
7349;DHT22;13010;-33.424;-70.614;2023-02-28T05:35:08;14.20;99.90
7349;DHT22;13010;-33.424;-70.614;2023-02-28T05:37:57;14.40;99.90
7349;DHT22;13010;-33.424;-70.614;2023-02-28T05:40:46;14.30;99.90
7349;DHT22;13010;-33.424;-70.614;2023-02-28T05:43:39;14.10;99.90
7349;DHT22;13010;-33.424;-70.614;2023-02-28T05:46:31;14.00;99.90
7349;DHT22;13010;-33.424;-70.614;2023-02-28T05:49:23;13.90;99.90
7349;DHT22;13010;-33.424;-70.614;2023-02-28T05:52:14;14.10;99.90
7349;DHT22;13010;-33.424;-70.614;2023-02-28T05:55:03;14.20;99.90
7349;DHT22;13010;-33.424;-70.614;2023-02-28T05:57:52;14.20;99.90
7349;DHT22;13010;-33.424;-70.614;2023-02-28T06:00:43;14.30;99.90
7349;DHT22;13010;-33.424;-70.614;2023-02-28T06:03:32;14.20;99.90
7349;DHT22;13010;-33.424;-70.614;2023-02-28T06:06:21;14.10;99.90
7349;DHT22;13010;-33.424;-70.614;2023-02-28T06:09:10;14.00;99.90
7349;DHT22;13010;-33.424;-70.614;2023-02-28T06:11:59;14.00;99.90
7349;DHT22;13010;-33.424;-70.614;2023-02-28T06:14:52;14.00;99.90
7349;DHT22;13010;-33.424;-70.614;2023-02-28T06:17:43;13.90;99.90
7349;DHT22;13010;-33.424;-70.614;2023-02-28T06:20:33;13.70;99.90
7349;DHT22;13010;-33.424;-70.614;2023-02-28T06:23:22;13.60;99.90
7349;DHT22;13010;-33.424;-70.614;2023-02-28T06:26:11;13.50;99.90
7349;DHT22;13010;-33.424;-70.614;2023-02-28T06:29:02;13.40;99.90
7349;DHT22;13010;-33.424;-70.614;2023-02-28T06:31:51;13.30;99.90
7349;DHT22;13010;-33.424;-70.614;2023-02-28T06:34:41;13.00;99.90
7349;DHT22;13010;-33.424;-70.614;2023-02-28T06:37:31;12.80;99.90
7349;DHT22;13010;-33.424;-70.614;2023-02-28T06:40:20;12.70;99.90
7349;DHT22;13010;-33.424;-70.614;2023-02-28T06:43:09;12.70;99.90
7349;DHT22;13010;-33.424;-70.614;2023-02-28T06:46:03;12.70;99.90
7349;DHT22;13010;-33.424;-70.614;2023-02-28T06:48:53;12.60;99.90
7349;DHT22;13010;-33.424;-70.614;2023-02-28T06:51:44;12.50;99.90
7349;DHT22;13010;-33.424;-70.614;2023-02-28T06:54:33;12.40;99.90
7349;DHT22;13010;-33.424;-70.614;2023-02-28T06:57:22;12.30;99.90
7349;DHT22;13010;-33.424;-70.614;2023-02-28T07:00:12;12.30;99.90
7349;DHT22;13010;-33.424;-70.614;2023-02-28T07:03:01;12.20;99.90
7349;DHT22;13010;-33.424;-70.614;2023-02-28T07:05:49;12.30;99.90
7349;DHT22;13010;-33.424;-70.614;2023-02-28T07:08:40;12.30;99.90
7349;DHT22;13010;-33.424;-70.614;2023-02-28T07:11:29;12.30;99.90
7349;DHT22;13010;-33.424;-70.614;2023-02-28T07:14:18;12.40;99.90
7349;DHT22;13010;-33.424;-70.614;2023-02-28T07:17:09;12.40;99.90
7349;DHT22;13010;-33.424;-70.614;2023-02-28T07:19:58;12.30;99.90
7349;DHT22;13010;-33.424;-70.614;2023-02-28T07:22:47;12.20;99.90
7349;DHT22;13010;-33.424;-70.614;2023-02-28T07:25:43;12.20;99.90
7349;DHT22;13010;-33.424;-70.614;2023-02-28T07:28:32;11.90;99.90
7349;DHT22;13010;-33.424;-70.614;2023-02-28T07:31:21;11.80;99.90
7349;DHT22;13010;-33.424;-70.614;2023-02-28T07:34:09;11.60;99.90
7349;DHT22;13010;-33.424;-70.614;2023-02-28T07:36:59;11.60;99.90
7349;DHT22;13010;-33.424;-70.614;2023-02-28T07:39:49;11.70;99.90
7349;DHT22;13010;-33.424;-70.614;2023-02-28T07:42:40;11.50;99.90
7349;DHT22;13010;-33.424;-70.614;2023-02-28T07:45:30;11.50;99.90
7349;DHT22;13010;-33.424;-70.614;2023-02-28T07:48:20;11.50;99.90
7349;DHT22;13010;-33.424;-70.614;2023-02-28T07:51:09;11.30;99.90
7349;DHT22;13010;-33.424;-70.614;2023-02-28T07:53:58;11.20;99.90
7349;DHT22;13010;-33.424;-70.614;2023-02-28T07:56:47;11.00;99.90
7349;DHT22;13010;-33.424;-70.614;2023-02-28T07:59:38;10.90;99.90
7349;DHT22;13010;-33.424;-70.614;2023-02-28T08:02:27;10.80;99.90
7349;DHT22;13010;-33.424;-70.614;2023-02-28T08:05:16;10.90;99.90
7349;DHT22;13010;-33.424;-70.614;2023-02-28T08:08:05;10.90;99.90
7349;DHT22;13010;-33.424;-70.614;2023-02-28T08:10:54;11.00;99.90
7349;DHT22;13010;-33.424;-70.614;2023-02-28T08:13:43;11.10;99.90
7349;DHT22;13010;-33.424;-70.614;2023-02-28T08:16:33;11.10;99.90
7349;DHT22;13010;-33.424;-70.614;2023-02-28T08:19:22;11.20;99.90
7349;DHT22;13010;-33.424;-70.614;2023-02-28T08:22:11;11.20;99.90
7349;DHT22;13010;-33.424;-70.614;2023-02-28T08:25:00;11.30;99.90
7349;DHT22;13010;-33.424;-70.614;2023-02-28T08:27:51;11.20;99.90
7349;DHT22;13010;-33.424;-70.614;2023-02-28T08:30:40;11.00;99.90
7349;DHT22;13010;-33.424;-70.614;2023-02-28T08:33:31;11.00;99.90
7349;DHT22;13010;-33.424;-70.614;2023-02-28T08:36:20;10.80;99.90
7349;DHT22;13010;-33.424;-70.614;2023-02-28T08:39:09;10.70;99.90
7349;DHT22;13010;-33.424;-70.614;2023-02-28T08:41:58;10.70;99.90
7349;DHT22;13010;-33.424;-70.614;2023-02-28T08:44:48;10.60;99.90
7349;DHT22;13010;-33.424;-70.614;2023-02-28T08:47:37;10.40;99.90
7349;DHT22;13010;-33.424;-70.614;2023-02-28T08:50:27;10.20;99.90
7349;DHT22;13010;-33.424;-70.614;2023-02-28T08:53:16;10.20;99.90
7349;DHT22;13010;-33.424;-70.614;2023-02-28T08:56:06;10.30;99.90
7349;DHT22;13010;-33.424;-70.614;2023-02-28T08:58:56;10.30;99.90
7349;DHT22;13010;-33.424;-70.614;2023-02-28T09:01:45;10.40;99.90
7349;DHT22;13010;-33.424;-70.614;2023-02-28T09:04:35;10.50;99.90
7349;DHT22;13010;-33.424;-70.614;2023-02-28T09:07:26;10.50;99.90
7349;DHT22;13010;-33.424;-70.614;2023-02-28T09:10:15;10.50;99.90
7349;DHT22;13010;-33.424;-70.614;2023-02-28T09:13:04;10.50;99.90
7349;DHT22;13010;-33.424;-70.614;2023-02-28T09:15:56;10.40;99.90
7349;DHT22;13010;-33.424;-70.614;2023-02-28T09:18:45;10.30;99.90
7349;DHT22;13010;-33.424;-70.614;2023-02-28T09:21:34;10.40;99.90
7349;DHT22;13010;-33.424;-70.614;2023-02-28T09:24:26;10.60;99.90
7349;DHT22;13010;-33.424;-70.614;2023-02-28T09:27:17;10.70;99.90
7349;DHT22;13010;-33.424;-70.614;2023-02-28T09:30:07;10.80;99.90
7349;DHT22;13010;-33.424;-70.614;2023-02-28T09:32:56;10.80;99.90
7349;DHT22;13010;-33.424;-70.614;2023-02-28T09:35:45;10.70;99.90
7349;DHT22;13010;-33.424;-70.614;2023-02-28T09:38:34;10.60;99.90
7349;DHT22;13010;-33.424;-70.614;2023-02-28T09:41:26;10.50;99.90
7349;DHT22;13010;-33.424;-70.614;2023-02-28T09:44:22;10.40;99.90
7349;DHT22;13010;-33.424;-70.614;2023-02-28T09:47:23;10.30;99.90
7349;DHT22;13010;-33.424;-70.614;2023-02-28T09:50:21;10.10;99.90
7349;DHT22;13010;-33.424;-70.614;2023-02-28T09:53:18;10.10;99.90
7349;DHT22;13010;-33.424;-70.614;2023-02-28T09:56:09;10.10;99.90
7349;DHT22;13010;-33.424;-70.614;2023-02-28T09:59:02;10.20;99.90
7349;DHT22;13010;-33.424;-70.614;2023-02-28T10:01:59;10.00;99.90
7349;DHT22;13010;-33.424;-70.614;2023-02-28T10:04:53;9.90;99.90
7349;DHT22;13010;-33.424;-70.614;2023-02-28T10:08:02;10.00;99.90
7349;DHT22;13010;-33.424;-70.614;2023-02-28T10:10:57;10.00;99.90
7349;DHT22;13010;-33.424;-70.614;2023-02-28T10:13:54;10.00;99.90
7349;DHT22;13010;-33.424;-70.614;2023-02-28T10:16:50;10.00;99.90
7349;DHT22;13010;-33.424;-70.614;2023-02-28T10:19:44;10.10;99.90
7349;DHT22;13010;-33.424;-70.614;2023-02-28T10:22:41;10.30;99.90
7349;DHT22;13010;-33.424;-70.614;2023-02-28T10:25:33;10.60;99.90
7349;DHT22;13010;-33.424;-70.614;2023-02-28T10:28:24;10.50;99.90
7349;DHT22;13010;-33.424;-70.614;2023-02-28T10:31:17;10.60;99.90
7349;DHT22;13010;-33.424;-70.614;2023-02-28T10:34:08;10.70;99.90
7349;DHT22;13010;-33.424;-70.614;2023-02-28T10:37:01;10.70;99.90
7349;DHT22;13010;-33.424;-70.614;2023-02-28T10:39:54;10.70;99.90
7349;DHT22;13010;-33.424;-70.614;2023-02-28T10:42:43;10.80;99.90
7349;DHT22;13010;-33.424;-70.614;2023-02-28T10:46:03;10.70;99.90
7349;DHT22;13010;-33.424;-70.614;2023-02-28T10:49:02;10.70;99.90
7349;DHT22;13010;-33.424;-70.614;2023-02-28T10:51:56;10.70;99.90
7349;DHT22;13010;-33.424;-70.614;2023-02-28T10:54:45;10.80;99.90
7349;DHT22;13010;-33.424;-70.614;2023-02-28T10:57:35;10.90;99.90
7349;DHT22;13010;-33.424;-70.614;2023-02-28T11:00:25;11.10;99.90
7349;DHT22;13010;-33.424;-70.614;2023-02-28T11:03:24;11.20;99.90
7349;DHT22;13010;-33.424;-70.614;2023-02-28T11:06:19;11.30;99.90
7349;DHT22;13010;-33.424;-70.614;2023-02-28T11:09:20;11.40;99.90
7349;DHT22;13010;-33.424;-70.614;2023-02-28T11:12:21;11.50;99.90
7349;DHT22;13010;-33.424;-70.614;2023-02-28T11:15:21;11.70;99.90
7349;DHT22;13010;-33.424;-70.614;2023-02-28T11:18:22;11.90;99.90
7349;DHT22;13010;-33.424;-70.614;2023-02-28T11:21:17;12.10;99.90
7349;DHT22;13010;-33.424;-70.614;2023-02-28T11:24:26;12.30;99.90
7349;DHT22;13010;-33.424;-70.614;2023-02-28T11:27:38;12.70;99.90
7349;DHT22;13010;-33.424;-70.614;2023-02-28T11:30:31;13.00;99.90
7349;DHT22;13010;-33.424;-70.614;2023-02-28T11:33:27;13.30;99.90
7349;DHT22;13010;-33.424;-70.614;2023-02-28T11:36:20;13.60;99.90
7349;DHT22;13010;-33.424;-70.614;2023-02-28T11:39:11;13.80;99.90
7349;DHT22;13010;-33.424;-70.614;2023-02-28T11:42:31;14.20;99.90
7349;DHT22;13010;-33.424;-70.614;2023-02-28T11:45:43;14.40;99.90
7349;DHT22;13010;-33.424;-70.614;2023-02-28T11:48:40;17.60;99.90
7349;DHT22;13010;-33.424;-70.614;2023-02-28T11:51:52;23.30;99.90
7349;DHT22;13010;-33.424;-70.614;2023-02-28T11:55:08;27.60;99.90
7349;DHT22;13010;-33.424;-70.614;2023-02-28T11:58:28;30.00;93.70
7349;DHT22;13010;-33.424;-70.614;2023-02-28T12:01:28;31.30;69.00
7349;DHT22;13010;-33.424;-70.614;2023-02-28T12:04:25;32.00;61.50
7349;DHT22;13010;-33.424;-70.614;2023-02-28T12:07:23;32.80;52.70
7349;DHT22;13010;-33.424;-70.614;2023-02-28T12:10:21;34.20;45.70
7349;DHT22;13010;-33.424;-70.614;2023-02-28T12:13:20;35.00;37.70
7349;DHT22;13010;-33.424;-70.614;2023-02-28T12:16:39;34.70;36.70
7349;DHT22;13010;-33.424;-70.614;2023-02-28T12:19:40;35.80;31.00
7349;DHT22;13010;-33.424;-70.614;2023-02-28T12:22:36;36.00;30.00
7349;DHT22;13010;-33.424;-70.614;2023-02-28T12:25:49;37.00;27.30
7349;DHT22;13010;-33.424;-70.614;2023-02-28T12:28:43;37.50;24.80
7349;DHT22;13010;-33.424;-70.614;2023-02-28T12:31:37;38.50;23.90
7349;DHT22;13010;-33.424;-70.614;2023-02-28T12:34:31;38.60;21.80
7349;DHT22;13010;-33.424;-70.614;2023-02-28T12:37:24;40.20;19.70
7349;DHT22;13010;-33.424;-70.614;2023-02-28T12:40:17;39.90;19.50
7349;DHT22;13010;-33.424;-70.614;2023-02-28T12:43:09;40.50;18.90
7349;DHT22;13010;-33.424;-70.614;2023-02-28T12:46:05;41.20;17.40
7349;DHT22;13010;-33.424;-70.614;2023-02-28T12:48:57;41.30;16.70
7349;DHT22;13010;-33.424;-70.614;2023-02-28T12:51:48;41.80;15.30
7349;DHT22;13010;-33.424;-70.614;2023-02-28T12:54:42;41.70;14.40
7349;DHT22;13010;-33.424;-70.614;2023-02-28T12:57:38;42.50;14.30
7349;DHT22;13010;-33.424;-70.614;2023-02-28T13:00:35;40.80;14.10
7349;DHT22;13010;-33.424;-70.614;2023-02-28T13:03:51;42.00;13.70
7349;DHT22;13010;-33.424;-70.614;2023-02-28T13:06:55;41.90;12.90
7349;DHT22;13010;-33.424;-70.614;2023-02-28T13:09:53;42.00;13.90
7349;DHT22;13010;-33.424;-70.614;2023-02-28T13:12:49;44.80;11.40
7349;DHT22;13010;-33.424;-70.614;2023-02-28T13:15:40;44.50;10.30
7349;DHT22;13010;-33.424;-70.614;2023-02-28T13:18:33;45.40;9.80
7349;DHT22;13010;-33.424;-70.614;2023-02-28T13:21:28;44.90;10.20
7349;DHT22;13010;-33.424;-70.614;2023-02-28T13:24:43;45.40;9.20
7349;DHT22;13010;-33.424;-70.614;2023-02-28T13:27:40;46.80;8.70
7349;DHT22;13010;-33.424;-70.614;2023-02-28T13:31:01;47.10;7.80
7349;DHT22;13010;-33.424;-70.614;2023-02-28T13:34:14;46.90;6.80
7349;DHT22;13010;-33.424;-70.614;2023-02-28T13:40:31;48.60;6.50
7349;DHT22;13010;-33.424;-70.614;2023-02-28T13:50:26;48.70;5.50
7349;DHT22;13010;-33.424;-70.614;2023-02-28T13:53:32;50.00;4.70
7349;DHT22;13010;-33.424;-70.614;2023-02-28T13:56:31;49.80;4.20
7349;DHT22;13010;-33.424;-70.614;2023-02-28T13:59:29;50.50;3.90
7349;DHT22;13010;-33.424;-70.614;2023-02-28T14:02:55;51.60;3.60
7349;DHT22;13010;-33.424;-70.614;2023-02-28T14:06:20;49.00;3.90
7349;DHT22;13010;-33.424;-70.614;2023-02-28T14:09:21;50.20;3.60
7349;DHT22;13010;-33.424;-70.614;2023-02-28T14:15:58;50.40;3.10
7349;DHT22;13010;-33.424;-70.614;2023-02-28T14:18:55;52.40;2.30
7349;DHT22;13010;-33.424;-70.614;2023-02-28T14:22:00;50.70;2.20
7349;DHT22;13010;-33.424;-70.614;2023-02-28T14:25:11;51.30;2.60
7349;DHT22;13010;-33.424;-70.614;2023-02-28T14:28:13;51.90;2.10
7349;DHT22;13010;-33.424;-70.614;2023-02-28T14:31:09;51.70;2.10
7349;DHT22;13010;-33.424;-70.614;2023-02-28T14:34:31;51.50;2.10
7349;DHT22;13010;-33.424;-70.614;2023-02-28T14:37:26;52.80;1.40
7349;DHT22;13010;-33.424;-70.614;2023-02-28T14:40:17;52.00;1.70
7349;DHT22;13010;-33.424;-70.614;2023-02-28T14:43:20;52.70;1.30
7349;DHT22;13010;-33.424;-70.614;2023-02-28T14:46:13;52.00;1.70
7349;DHT22;13010;-33.424;-70.614;2023-02-28T14:49:04;52.40;1.60
7349;DHT22;13010;-33.424;-70.614;2023-02-28T14:52:05;53.00;1.20
7349;DHT22;13010;-33.424;-70.614;2023-02-28T14:54:56;52.90;1.10
7349;DHT22;13010;-33.424;-70.614;2023-02-28T14:57:52;52.50;1.00
7349;DHT22;13010;-33.424;-70.614;2023-02-28T15:00:48;50.50;1.40
7349;DHT22;13010;-33.424;-70.614;2023-02-28T15:03:40;52.60;1.00
7349;DHT22;13010;-33.424;-70.614;2023-02-28T15:06:31;54.10;1.00
7349;DHT22;13010;-33.424;-70.614;2023-02-28T15:09:21;54.20;1.00
7349;DHT22;13010;-33.424;-70.614;2023-02-28T15:12:14;51.70;1.00
7349;DHT22;13010;-33.424;-70.614;2023-02-28T15:15:04;48.90;2.00
7349;DHT22;13010;-33.424;-70.614;2023-02-28T15:17:57;49.70;2.40
7349;DHT22;13010;-33.424;-70.614;2023-02-28T15:20:50;46.60;2.70
7349;DHT22;13010;-33.424;-70.614;2023-02-28T15:23:41;48.90;2.50
7349;DHT22;13010;-33.424;-70.614;2023-02-28T15:26:32;51.50;1.60
7349;DHT22;13010;-33.424;-70.614;2023-02-28T15:29:24;52.00;1.10
7349;DHT22;13010;-33.424;-70.614;2023-02-28T15:32:25;52.10;1.20
7349;DHT22;13010;-33.424;-70.614;2023-02-28T15:35:27;51.70;1.00
7349;DHT22;13010;-33.424;-70.614;2023-02-28T15:38:22;51.60;1.00
7349;DHT22;13010;-33.424;-70.614;2023-02-28T15:41:24;48.90;2.10
7349;DHT22;13010;-33.424;-70.614;2023-02-28T15:44:22;43.60;4.10
7349;DHT22;13010;-33.424;-70.614;2023-02-28T15:47:19;41.90;6.10
7349;DHT22;13010;-33.424;-70.614;2023-02-28T15:50:12;45.70;4.60
7349;DHT22;13010;-33.424;-70.614;2023-02-28T15:53:03;49.90;2.10
7349;DHT22;13010;-33.424;-70.614;2023-02-28T15:56:00;50.70;1.50
7349;DHT22;13010;-33.424;-70.614;2023-02-28T15:58:51;52.60;1.20
7349;DHT22;13010;-33.424;-70.614;2023-02-28T16:01:44;52.50;1.00
7349;DHT22;13010;-33.424;-70.614;2023-02-28T16:04:37;52.90;1.00
7349;DHT22;13010;-33.424;-70.614;2023-02-28T16:07:44;50.60;1.30
7349;DHT22;13010;-33.424;-70.614;2023-02-28T16:10:35;50.40;1.60
7349;DHT22;13010;-33.424;-70.614;2023-02-28T16:13:35;44.40;4.20
7349;DHT22;13010;-33.424;-70.614;2023-02-28T16:16:32;41.90;6.30
7349;DHT22;13010;-33.424;-70.614;2023-02-28T16:19:23;44.10;6.00
7349;DHT22;13010;-33.424;-70.614;2023-02-28T16:22:13;49.40;3.80
7349;DHT22;13010;-33.424;-70.614;2023-02-28T16:25:02;51.30;2.50
7349;DHT22;13010;-33.424;-70.614;2023-02-28T16:27:55;50.00;2.50
7349;DHT22;13010;-33.424;-70.614;2023-02-28T16:30:48;50.70;2.30
7349;DHT22;13010;-33.424;-70.614;2023-02-28T16:33:40;48.00;3.10
7349;DHT22;13010;-33.424;-70.614;2023-02-28T16:36:30;49.50;3.60
7349;DHT22;13010;-33.424;-70.614;2023-02-28T16:39:18;50.50;2.50
7349;DHT22;13010;-33.424;-70.614;2023-02-28T16:42:14;49.00;2.90
7349;DHT22;13010;-33.424;-70.614;2023-02-28T16:45:03;48.80;3.30
7349;DHT22;13010;-33.424;-70.614;2023-02-28T16:47:56;48.50;3.60
7349;DHT22;13010;-33.424;-70.614;2023-02-28T16:50:45;48.80;3.70
7349;DHT22;13010;-33.424;-70.614;2023-02-28T16:53:34;49.20;3.00
7349;DHT22;13010;-33.424;-70.614;2023-02-28T16:56:24;48.90;4.00
7349;DHT22;13010;-33.424;-70.614;2023-02-28T16:59:13;49.50;2.80
7349;DHT22;13010;-33.424;-70.614;2023-02-28T17:02:11;48.70;3.70
7349;DHT22;13010;-33.424;-70.614;2023-02-28T17:05:03;47.30;3.90
7349;DHT22;13010;-33.424;-70.614;2023-02-28T17:07:52;45.70;5.10
7349;DHT22;13010;-33.424;-70.614;2023-02-28T17:10:41;45.20;5.70
7349;DHT22;13010;-33.424;-70.614;2023-02-28T17:13:30;45.10;4.90
7349;DHT22;13010;-33.424;-70.614;2023-02-28T17:16:25;46.00;5.70
7349;DHT22;13010;-33.424;-70.614;2023-02-28T17:19:16;46.60;4.60
7349;DHT22;13010;-33.424;-70.614;2023-02-28T17:22:09;47.30;4.70
7349;DHT22;13010;-33.424;-70.614;2023-02-28T17:24:58;46.60;5.10
7349;DHT22;13010;-33.424;-70.614;2023-02-28T17:27:47;44.70;5.90
7349;DHT22;13010;-33.424;-70.614;2023-02-28T17:30:37;44.00;6.60
7349;DHT22;13010;-33.424;-70.614;2023-02-28T17:33:33;44.60;6.70
7349;DHT22;13010;-33.424;-70.614;2023-02-28T17:36:24;44.60;6.20
7349;DHT22;13010;-33.424;-70.614;2023-02-28T17:39:15;43.80;6.30
7349;DHT22;13010;-33.424;-70.614;2023-02-28T17:42:09;42.10;6.30
7349;DHT22;13010;-33.424;-70.614;2023-02-28T17:45:01;41.70;7.20
7349;DHT22;13010;-33.424;-70.614;2023-02-28T17:47:50;42.50;7.20
7349;DHT22;13010;-33.424;-70.614;2023-02-28T17:50:39;43.00;7.10
7349;DHT22;13010;-33.424;-70.614;2023-02-28T17:53:28;44.40;7.00
7349;DHT22;13010;-33.424;-70.614;2023-02-28T17:56:20;44.20;6.60
7349;DHT22;13010;-33.424;-70.614;2023-02-28T17:59:10;44.10;7.00
7349;DHT22;13010;-33.424;-70.614;2023-02-28T18:02:00;44.50;5.30
7349;DHT22;13010;-33.424;-70.614;2023-02-28T18:04:49;43.00;6.70
7349;DHT22;13010;-33.424;-70.614;2023-02-28T18:07:38;43.50;6.80
7349;DHT22;13010;-33.424;-70.614;2023-02-28T18:10:28;43.40;6.80
7349;DHT22;13010;-33.424;-70.614;2023-02-28T18:13:21;43.20;7.00